sensor_id;sensor_type;location;lat;lon;timestamp;pressure;altitude;pressure_sealevel;temperature;humidity
51759;BME280;66684;47.568;18.734;2024-03-02T00:00:20;98829.88;;;8.30;100.00
51759;BME280;66684;47.568;18.734;2024-03-02T00:02:48;98827.16;;;8.27;100.00
51759;BME280;66684;47.568;18.734;2024-03-02T00:05:17;98819.91;;;8.17;100.00
51759;BME280;66684;47.568;18.734;2024-03-02T00:07:45;98815.22;;;8.29;100.00
51759;BME280;66684;47.568;18.734;2024-03-02T00:10:19;98825.06;;;8.17;100.00
51759;BME280;66684;47.568;18.734;2024-03-02T00:12:47;98814.31;;;8.04;100.00
51759;BME280;66684;47.568;18.734;2024-03-02T00:15:34;98819.00;;;7.92;100.00
51759;BME280;66684;47.568;18.734;2024-03-02T00:18:05;98826.59;;;7.89;100.00
51759;BME280;66684;47.568;18.734;2024-03-02T00:20:31;98814.63;;;8.12;100.00
51759;BME280;66684;47.568;18.734;2024-03-02T00:23:05;98817.69;;;8.03;100.00
51759;BME280;66684;47.568;18.734;2024-03-02T00:25:42;98810.56;;;7.96;100.00
51759;BME280;66684;47.568;18.734;2024-03-02T00:28:16;98806.13;;;7.70;100.00
51759;BME280;66684;47.568;18.734;2024-03-02T00:30:55;98803.38;;;7.65;100.00
51759;BME280;66684;47.568;18.734;2024-03-02T00:33:23;98794.56;;;7.81;100.00
51759;BME280;66684;47.568;18.734;2024-03-02T00:35:50;98800.06;;;7.90;100.00
51759;BME280;66684;47.568;18.734;2024-03-02T00:38:16;98806.50;;;8.01;100.00
51759;BME280;66684;47.568;18.734;2024-03-02T00:40:43;98803.44;;;8.11;100.00
51759;BME280;66684;47.568;18.734;2024-03-02T00:46:17;98812.31;;;7.97;100.00
51759;BME280;66684;47.568;18.734;2024-03-02T00:48:57;98808.72;;;7.92;100.00
51759;BME280;66684;47.568;18.734;2024-03-02T00:51:25;98812.22;;;7.94;100.00
51759;BME280;66684;47.568;18.734;2024-03-02T00:53:52;98810.34;;;7.90;100.00
51759;BME280;66684;47.568;18.734;2024-03-02T00:56:21;98809.41;;;7.88;100.00
51759;BME280;66684;47.568;18.734;2024-03-02T00:58:47;98813.41;;;7.80;100.00
51759;BME280;66684;47.568;18.734;2024-03-02T01:01:12;98803.81;;;7.76;100.00
51759;BME280;66684;47.568;18.734;2024-03-02T01:03:39;98803.59;;;7.92;100.00
51759;BME280;66684;47.568;18.734;2024-03-02T01:06:05;98807.09;;;7.94;100.00
51759;BME280;66684;47.568;18.734;2024-03-02T01:08:36;98808.25;;;7.80;100.00
51759;BME280;66684;47.568;18.734;2024-03-02T01:11:03;98813.72;;;7.67;100.00
51759;BME280;66684;47.568;18.734;2024-03-02T01:13:29;98804.97;;;7.62;100.00
51759;BME280;66684;47.568;18.734;2024-03-02T01:15:56;98809.75;;;7.75;100.00
51759;BME280;66684;47.568;18.734;2024-03-02T01:18:21;98811.63;;;7.79;100.00
51759;BME280;66684;47.568;18.734;2024-03-02T01:20:50;98804.97;;;7.84;100.00
51759;BME280;66684;47.568;18.734;2024-03-02T01:23:22;98798.22;;;7.86;100.00
51759;BME280;66684;47.568;18.734;2024-03-02T01:25:48;98799.00;;;7.85;100.00
51759;BME280;66684;47.568;18.734;2024-03-02T01:28:14;98790.53;;;7.88;100.00
51759;BME280;66684;47.568;18.734;2024-03-02T01:30:40;98800.19;;;7.93;100.00
51759;BME280;66684;47.568;18.734;2024-03-02T01:33:06;98797.53;;;7.92;100.00
51759;BME280;66684;47.568;18.734;2024-03-02T01:35:32;98790.97;;;7.98;100.00
51759;BME280;66684;47.568;18.734;2024-03-02T01:37:58;98788.53;;;8.03;100.00
51759;BME280;66684;47.568;18.734;2024-03-02T01:40:24;98787.72;;;8.04;100.00
51759;BME280;66684;47.568;18.734;2024-03-02T01:42:54;98783.34;;;8.01;100.00
51759;BME280;66684;47.568;18.734;2024-03-02T01:45:21;98786.84;;;8.03;100.00
51759;BME280;66684;47.568;18.734;2024-03-02T01:47:47;98783.25;;;7.98;100.00
51759;BME280;66684;47.568;18.734;2024-03-02T01:50:13;98787.78;;;7.83;100.00
51759;BME280;66684;47.568;18.734;2024-03-02T01:52:40;98790.38;;;7.61;100.00
51759;BME280;66684;47.568;18.734;2024-03-02T01:55:06;98794.16;;;7.70;100.00
51759;BME280;66684;47.568;18.734;2024-03-02T01:57:34;98782.69;;;7.84;100.00
51759;BME280;66684;47.568;18.734;2024-03-02T02:00:00;98783.75;;;7.90;100.00
51759;BME280;66684;47.568;18.734;2024-03-02T02:02:26;98779.47;;;7.90;100.00
51759;BME280;66684;47.568;18.734;2024-03-02T02:04:52;98781.59;;;8.00;100.00
51759;BME280;66684;47.568;18.734;2024-03-02T02:07:18;98785.22;;;8.05;100.00
51759;BME280;66684;47.568;18.734;2024-03-02T02:09:44;98787.84;;;8.07;100.00
51759;BME280;66684;47.568;18.734;2024-03-02T02:12:10;98786.75;;;8.24;100.00
51759;BME280;66684;47.568;18.734;2024-03-02T02:14:36;98785.34;;;8.32;100.00
51759;BME280;66684;47.568;18.734;2024-03-02T02:17:03;98788.38;;;8.22;100.00
51759;BME280;66684;47.568;18.734;2024-03-02T02:19:29;98790.53;;;8.34;100.00
51759;BME280;66684;47.568;18.734;2024-03-02T02:21:55;98795.00;;;8.38;100.00
51759;BME280;66684;47.568;18.734;2024-03-02T02:24:21;98806.72;;;8.30;100.00
51759;BME280;66684;47.568;18.734;2024-03-02T02:26:46;98806.47;;;8.24;100.00
51759;BME280;66684;47.568;18.734;2024-03-02T02:29:12;98817.28;;;8.15;100.00
51759;BME280;66684;47.568;18.734;2024-03-02T02:31:39;98819.59;;;8.07;100.00
51759;BME280;66684;47.568;18.734;2024-03-02T02:34:06;98818.88;;;8.11;100.00
51759;BME280;66684;47.568;18.734;2024-03-02T02:36:33;98813.84;;;8.15;100.00
51759;BME280;66684;47.568;18.734;2024-03-02T02:39:02;98818.63;;;8.28;100.00
51759;BME280;66684;47.568;18.734;2024-03-02T02:41:32;98824.50;;;8.24;100.00
51759;BME280;66684;47.568;18.734;2024-03-02T02:43:58;98832.72;;;8.15;100.00
51759;BME280;66684;47.568;18.734;2024-03-02T02:46:24;98834.25;;;8.10;100.00
51759;BME280;66684;47.568;18.734;2024-03-02T02:48:50;98824.31;;;8.19;100.00
51759;BME280;66684;47.568;18.734;2024-03-02T02:51:18;98824.72;;;8.30;100.00
51759;BME280;66684;47.568;18.734;2024-03-02T02:53:44;98825.50;;;8.29;100.00
51759;BME280;66684;47.568;18.734;2024-03-02T02:56:10;98827.28;;;8.30;100.00
51759;BME280;66684;47.568;18.734;2024-03-02T02:58:36;98820.50;;;8.32;100.00
51759;BME280;66684;47.568;18.734;2024-03-02T03:01:02;98815.31;;;8.30;100.00
51759;BME280;66684;47.568;18.734;2024-03-02T03:03:28;98816.88;;;8.27;100.00
51759;BME280;66684;47.568;18.734;2024-03-02T03:05:54;98813.38;;;8.25;100.00
51759;BME280;66684;47.568;18.734;2024-03-02T03:08:19;98812.41;;;8.23;100.00
51759;BME280;66684;47.568;18.734;2024-03-02T03:10:45;98816.78;;;8.24;100.00
51759;BME280;66684;47.568;18.734;2024-03-02T03:13:11;98812.56;;;8.26;100.00
51759;BME280;66684;47.568;18.734;2024-03-02T03:15:37;98812.87;;;8.35;100.00
51759;BME280;66684;47.568;18.734;2024-03-02T03:18:04;98814.56;;;8.34;100.00
51759;BME280;66684;47.568;18.734;2024-03-02T03:20:30;98817.34;;;8.39;100.00
51759;BME280;66684;47.568;18.734;2024-03-02T03:22:57;98813.25;;;8.44;100.00
51759;BME280;66684;47.568;18.734;2024-03-02T03:25:23;98811.44;;;8.42;100.00
51759;BME280;66684;47.568;18.734;2024-03-02T03:27:49;98814.88;;;8.42;100.00
51759;BME280;66684;47.568;18.734;2024-03-02T03:30:15;98821.91;;;8.46;100.00
51759;BME280;66684;47.568;18.734;2024-03-02T03:32:40;98819.31;;;8.46;100.00
51759;BME280;66684;47.568;18.734;2024-03-02T03:35:07;98818.34;;;8.43;100.00
51759;BME280;66684;47.568;18.734;2024-03-02T03:37:33;98808.97;;;8.45;100.00
51759;BME280;66684;47.568;18.734;2024-03-02T03:39:59;98814.09;;;8.43;100.00
51759;BME280;66684;47.568;18.734;2024-03-02T03:42:27;98820.50;;;8.32;100.00
51759;BME280;66684;47.568;18.734;2024-03-02T03:44:52;98822.03;;;8.27;100.00
51759;BME280;66684;47.568;18.734;2024-03-02T03:47:18;98824.12;;;8.15;100.00
51759;BME280;66684;47.568;18.734;2024-03-02T03:49:45;98819.44;;;8.04;100.00
51759;BME280;66684;47.568;18.734;2024-03-02T03:52:11;98819.03;;;8.16;100.00
51759;BME280;66684;47.568;18.734;2024-03-02T03:54:37;98823.53;;;8.22;100.00
51759;BME280;66684;47.568;18.734;2024-03-02T03:57:04;98826.94;;;8.21;100.00
51759;BME280;66684;47.568;18.734;2024-03-02T03:59:30;98820.81;;;8.17;100.00
51759;BME280;66684;47.568;18.734;2024-03-02T04:01:56;98821.56;;;8.15;100.00
51759;BME280;66684;47.568;18.734;2024-03-02T04:04:22;98818.06;;;8.13;100.00
51759;BME280;66684;47.568;18.734;2024-03-02T04:06:48;98817.00;;;8.07;100.00
51759;BME280;66684;47.568;18.734;2024-03-02T04:09:13;98821.22;;;8.05;100.00
51759;BME280;66684;47.568;18.734;2024-03-02T04:11:39;98823.81;;;8.05;100.00
51759;BME280;66684;47.568;18.734;2024-03-02T04:14:05;98834.56;;;7.95;100.00
51759;BME280;66684;47.568;18.734;2024-03-02T04:16:32;98827.13;;;8.03;100.00
51759;BME280;66684;47.568;18.734;2024-03-02T04:18:57;98833.91;;;8.01;100.00
51759;BME280;66684;47.568;18.734;2024-03-02T04:21:23;98835.78;;;8.05;100.00
51759;BME280;66684;47.568;18.734;2024-03-02T04:23:49;98833.72;;;7.96;100.00
51759;BME280;66684;47.568;18.734;2024-03-02T04:26:15;98844.03;;;7.96;100.00
51759;BME280;66684;47.568;18.734;2024-03-02T04:28:45;98844.56;;;7.88;100.00
51759;BME280;66684;47.568;18.734;2024-03-02T04:31:11;98846.12;;;7.84;100.00
51759;BME280;66684;47.568;18.734;2024-03-02T04:33:37;98850.91;;;7.75;100.00
51759;BME280;66684;47.568;18.734;2024-03-02T04:36:03;98853.78;;;7.82;100.00
51759;BME280;66684;47.568;18.734;2024-03-02T04:38:29;98857.66;;;7.94;100.00
51759;BME280;66684;47.568;18.734;2024-03-02T04:40:56;98861.91;;;7.93;100.00
51759;BME280;66684;47.568;18.734;2024-03-02T04:43:21;98854.88;;;7.89;100.00
51759;BME280;66684;47.568;18.734;2024-03-02T04:45:47;98855.34;;;7.79;100.00
51759;BME280;66684;47.568;18.734;2024-03-02T04:48:13;98858.28;;;7.88;100.00
51759;BME280;66684;47.568;18.734;2024-03-02T04:50:40;98852.75;;;7.79;100.00
51759;BME280;66684;47.568;18.734;2024-03-02T04:53:06;98859.09;;;7.87;100.00
51759;BME280;66684;47.568;18.734;2024-03-02T04:55:32;98855.47;;;7.82;100.00
51759;BME280;66684;47.568;18.734;2024-03-02T04:58:00;98861.31;;;7.78;100.00
51759;BME280;66684;47.568;18.734;2024-03-02T05:00:26;98858.72;;;7.78;100.00
51759;BME280;66684;47.568;18.734;2024-03-02T05:02:52;98857.81;;;7.76;100.00
51759;BME280;66684;47.568;18.734;2024-03-02T05:05:17;98864.44;;;7.71;100.00
51759;BME280;66684;47.568;18.734;2024-03-02T05:07:43;98859.31;;;7.71;100.00
51759;BME280;66684;47.568;18.734;2024-03-02T05:10:10;98859.59;;;7.78;100.00
51759;BME280;66684;47.568;18.734;2024-03-02T05:12:37;98868.19;;;7.79;100.00
51759;BME280;66684;47.568;18.734;2024-03-02T05:15:13;98862.06;;;7.75;100.00
51759;BME280;66684;47.568;18.734;2024-03-02T05:17:41;98864.59;;;7.74;100.00
51759;BME280;66684;47.568;18.734;2024-03-02T05:20:10;98863.88;;;7.78;100.00
51759;BME280;66684;47.568;18.734;2024-03-02T05:22:37;98871.09;;;7.66;100.00
51759;BME280;66684;47.568;18.734;2024-03-02T05:25:04;98872.63;;;7.61;100.00
51759;BME280;66684;47.568;18.734;2024-03-02T05:27:30;98871.91;;;7.65;100.00
51759;BME280;66684;47.568;18.734;2024-03-02T05:29:56;98868.53;;;7.66;100.00
51759;BME280;66684;47.568;18.734;2024-03-02T05:32:23;98876.47;;;7.49;100.00
51759;BME280;66684;47.568;18.734;2024-03-02T05:34:49;98872.50;;;7.57;100.00
51759;BME280;66684;47.568;18.734;2024-03-02T05:37:17;98872.13;;;7.48;100.00
51759;BME280;66684;47.568;18.734;2024-03-02T05:39:43;98877.28;;;7.48;100.00
51759;BME280;66684;47.568;18.734;2024-03-02T05:42:09;98879.13;;;7.52;100.00
51759;BME280;66684;47.568;18.734;2024-03-02T05:44:38;98875.50;;;7.47;100.00
51759;BME280;66684;47.568;18.734;2024-03-02T05:47:04;98873.63;;;7.43;100.00
51759;BME280;66684;47.568;18.734;2024-03-02T05:49:30;98873.75;;;7.46;100.00
51759;BME280;66684;47.568;18.734;2024-03-02T05:51:56;98873.13;;;7.52;100.00
51759;BME280;66684;47.568;18.734;2024-03-02T05:54:22;98877.38;;;7.51;100.00
51759;BME280;66684;47.568;18.734;2024-03-02T05:56:48;98881.50;;;7.48;100.00
51759;BME280;66684;47.568;18.734;2024-03-02T05:59:14;98872.50;;;7.57;100.00
51759;BME280;66684;47.568;18.734;2024-03-02T06:01:44;98871.91;;;7.65;100.00
51759;BME280;66684;47.568;18.734;2024-03-02T06:04:10;98883.38;;;7.73;100.00
51759;BME280;66684;47.568;18.734;2024-03-02T06:06:36;98875.81;;;7.76;100.00
51759;BME280;66684;47.568;18.734;2024-03-02T06:09:03;98879.59;;;7.85;100.00
51759;BME280;66684;47.568;18.734;2024-03-02T06:11:39;98883.13;;;7.88;100.00
51759;BME280;66684;47.568;18.734;2024-03-02T06:14:06;98877.28;;;7.92;100.00
51759;BME280;66684;47.568;18.734;2024-03-02T06:16:33;98877.47;;;7.96;100.00
51759;BME280;66684;47.568;18.734;2024-03-02T06:18:59;98877.69;;;8.02;100.00
51759;BME280;66684;47.568;18.734;2024-03-02T06:21:26;98877.94;;;8.08;100.00
51759;BME280;66684;47.568;18.734;2024-03-02T06:23:52;98886.72;;;8.14;100.00
51759;BME280;66684;47.568;18.734;2024-03-02T06:26:19;98889.63;;;8.00;100.00
51759;BME280;66684;47.568;18.734;2024-03-02T06:28:45;98888.75;;;8.00;100.00
51759;BME280;66684;47.568;18.734;2024-03-02T06:31:11;98894.16;;;7.85;100.00
51759;BME280;66684;47.568;18.734;2024-03-02T06:33:37;98898.44;;;7.84;100.00
51759;BME280;66684;47.568;18.734;2024-03-02T06:36:03;98899.78;;;7.75;100.00
51759;BME280;66684;47.568;18.734;2024-03-02T06:38:29;98905.09;;;7.79;100.00
51759;BME280;66684;47.568;18.734;2024-03-02T06:40:57;98912.75;;;7.78;100.00
51759;BME280;66684;47.568;18.734;2024-03-02T06:43:23;98911.87;;;7.77;100.00
51759;BME280;66684;47.568;18.734;2024-03-02T06:45:50;98903.94;;;7.73;100.00
51759;BME280;66684;47.568;18.734;2024-03-02T06:48:16;98913.25;;;7.69;100.00
51759;BME280;66684;47.568;18.734;2024-03-02T06:50:51;98920.91;;;7.68;100.00
51759;BME280;66684;47.568;18.734;2024-03-02T06:53:17;98922.91;;;7.75;100.00
51759;BME280;66684;47.568;18.734;2024-03-02T06:55:45;98921.78;;;7.68;100.00
51759;BME280;66684;47.568;18.734;2024-03-02T06:58:14;98920.19;;;7.72;100.00
51759;BME280;66684;47.568;18.734;2024-03-02T07:00:42;98919.53;;;7.76;100.00
51759;BME280;66684;47.568;18.734;2024-03-02T07:03:08;98924.72;;;7.77;100.00
51759;BME280;66684;47.568;18.734;2024-03-02T07:05:34;98919.78;;;7.82;100.00
51759;BME280;66684;47.568;18.734;2024-03-02T07:07:59;98920.53;;;7.79;100.00
51759;BME280;66684;47.568;18.734;2024-03-02T07:10:27;98923.78;;;7.75;100.00
51759;BME280;66684;47.568;18.734;2024-03-02T07:12:53;98922.59;;;7.88;100.00
51759;BME280;66684;47.568;18.734;2024-03-02T07:15:19;98925.25;;;7.91;100.00
51759;BME280;66684;47.568;18.734;2024-03-02T07:18:10;98921.31;;;7.99;100.00
51759;BME280;66684;47.568;18.734;2024-03-02T07:20:36;98927.16;;;7.95;100.00
51759;BME280;66684;47.568;18.734;2024-03-02T07:23:04;98926.28;;;7.95;100.00
51759;BME280;66684;47.568;18.734;2024-03-02T07:25:31;98923.41;;;7.87;100.00
51759;BME280;66684;47.568;18.734;2024-03-02T07:27:57;98927.16;;;7.95;100.00
51759;BME280;66684;47.568;18.734;2024-03-02T07:30:23;98924.16;;;8.05;100.00
51759;BME280;66684;47.568;18.734;2024-03-02T07:32:52;98925.66;;;8.00;100.00
51759;BME280;66684;47.568;18.734;2024-03-02T07:35:18;98929.28;;;8.05;100.00
51759;BME280;66684;47.568;18.734;2024-03-02T07:37:43;98930.75;;;8.21;100.00
51759;BME280;66684;47.568;18.734;2024-03-02T07:40:10;98923.97;;;8.23;100.00
51759;BME280;66684;47.568;18.734;2024-03-02T07:42:40;98929.69;;;8.16;100.00
51759;BME280;66684;47.568;18.734;2024-03-02T07:45:06;98928.66;;;8.11;100.00
51759;BME280;66684;47.568;18.734;2024-03-02T07:47:36;98937.31;;;8.13;100.00
51759;BME280;66684;47.568;18.734;2024-03-02T07:50:03;98933.84;;;8.13;100.00
51759;BME280;66684;47.568;18.734;2024-03-02T07:52:32;98930.28;;;8.09;100.00
51759;BME280;66684;47.568;18.734;2024-03-02T07:54:58;98935.03;;;8.21;100.00
51759;BME280;66684;47.568;18.734;2024-03-02T07:57:25;98934.19;;;8.22;100.00
51759;BME280;66684;47.568;18.734;2024-03-02T07:59:51;98932.63;;;8.25;100.00
51759;BME280;66684;47.568;18.734;2024-03-02T08:02:17;98926.37;;;8.19;100.00
51759;BME280;66684;47.568;18.734;2024-03-02T08:04:43;98940.16;;;8.21;100.00
51759;BME280;66684;47.568;18.734;2024-03-02T08:07:09;98937.53;;;8.19;100.00
51759;BME280;66684;47.568;18.734;2024-03-02T08:09:35;98940.31;;;8.24;100.00
51759;BME280;66684;47.568;18.734;2024-03-02T08:12:00;98936.91;;;8.25;100.00
51759;BME280;66684;47.568;18.734;2024-03-02T08:14:26;98942.28;;;8.31;100.00
51759;BME280;66684;47.568;18.734;2024-03-02T08:16:52;98946.12;;;8.20;100.00
51759;BME280;66684;47.568;18.734;2024-03-02T08:19:18;98945.44;;;8.24;100.00
51759;BME280;66684;47.568;18.734;2024-03-02T08:21:44;98941.22;;;8.26;100.00
51759;BME280;66684;47.568;18.734;2024-03-02T08:24:10;98945.06;;;8.35;100.00
51759;BME280;66684;47.568;18.734;2024-03-02T08:26:36;98943.72;;;8.45;100.00
51759;BME280;66684;47.568;18.734;2024-03-02T08:29:02;98949.28;;;8.56;100.00
51759;BME280;66684;47.568;18.734;2024-03-02T08:31:29;98955.78;;;8.69;100.00
51759;BME280;66684;47.568;18.734;2024-03-02T08:33:55;98941.44;;;8.75;100.00
51759;BME280;66684;47.568;18.734;2024-03-02T08:36:23;98941.75;;;8.84;100.00
51759;BME280;66684;47.568;18.734;2024-03-02T08:38:50;98951.41;;;8.90;100.00
51759;BME280;66684;47.568;18.734;2024-03-02T08:41:16;98948.22;;;8.97;100.00
51759;BME280;66684;47.568;18.734;2024-03-02T08:43:42;98947.34;;;8.97;100.00
51759;BME280;66684;47.568;18.734;2024-03-02T08:46:08;98945.03;;;9.04;100.00
51759;BME280;66684;47.568;18.734;2024-03-02T08:48:34;98948.66;;;9.09;100.00
51759;BME280;66684;47.568;18.734;2024-03-02T08:51:00;98948.00;;;9.15;100.00
51759;BME280;66684;47.568;18.734;2024-03-02T08:53:26;98945.69;;;9.23;100.00
51759;BME280;66684;47.568;18.734;2024-03-02T08:55:52;98947.03;;;9.11;100.00
51759;BME280;66684;47.568;18.734;2024-03-02T08:58:18;98945.69;;;9.23;100.00
51759;BME280;66684;47.568;18.734;2024-03-02T09:00:46;98948.78;;;9.12;100.00
51759;BME280;66684;47.568;18.734;2024-03-02T09:03:13;98952.19;;;9.11;100.00
51759;BME280;66684;47.568;18.734;2024-03-02T09:05:38;98953.59;;;9.03;100.00
51759;BME280;66684;47.568;18.734;2024-03-02T09:08:05;98952.06;;;9.08;100.00
51759;BME280;66684;47.568;18.734;2024-03-02T09:10:30;98960.62;;;9.07;100.00
51759;BME280;66684;47.568;18.734;2024-03-02T09:12:56;98957.22;;;9.08;100.00
51759;BME280;66684;47.568;18.734;2024-03-02T09:15:22;98953.94;;;9.12;100.00
51759;BME280;66684;47.568;18.734;2024-03-02T09:17:48;98957.66;;;8.97;100.00
51759;BME280;66684;47.568;18.734;2024-03-02T09:20:14;98958.81;;;9.05;100.00
51759;BME280;66684;47.568;18.734;2024-03-02T09:22:40;98958.59;;;8.99;100.00
51759;BME280;66684;47.568;18.734;2024-03-02T09:25:07;98955.22;;;8.77;100.00
51759;BME280;66684;47.568;18.734;2024-03-02T09:27:38;98959.91;;;8.65;100.00
51759;BME280;66684;47.568;18.734;2024-03-02T09:30:12;98958.41;;;8.70;100.00
51759;BME280;66684;47.568;18.734;2024-03-02T09:32:39;98953.31;;;8.72;100.00
51759;BME280;66684;47.568;18.734;2024-03-02T09:35:05;98960.84;;;8.67;100.00
51759;BME280;66684;47.568;18.734;2024-03-02T09:37:31;98959.91;;;8.65;100.00
51759;BME280;66684;47.568;18.734;2024-03-02T09:39:57;98959.03;;;8.64;100.00
51759;BME280;66684;47.568;18.734;2024-03-02T09:42:23;98956.53;;;8.66;100.00
51759;BME280;66684;47.568;18.734;2024-03-02T09:44:49;98957.53;;;8.70;100.00
51759;BME280;66684;47.568;18.734;2024-03-02T09:47:15;98958.69;;;8.78;100.00
51759;BME280;66684;47.568;18.734;2024-03-02T09:49:41;98962.38;;;8.84;100.00
51759;BME280;66684;47.568;18.734;2024-03-02T09:52:07;98956.56;;;8.90;100.00
51759;BME280;66684;47.568;18.734;2024-03-02T09:54:33;98953.59;;;8.79;100.00
51759;BME280;66684;47.568;18.734;2024-03-02T09:56:59;98954.59;;;8.83;100.00
51759;BME280;66684;47.568;18.734;2024-03-02T09:59:27;98962.59;;;8.90;100.00
51759;BME280;66684;47.568;18.734;2024-03-02T10:02:01;98958.66;;;9.00;100.00
51759;BME280;66684;47.568;18.734;2024-03-02T10:04:28;98960.41;;;9.01;100.00
51759;BME280;66684;47.568;18.734;2024-03-02T10:07:15;98957.16;;;8.83;100.00
51759;BME280;66684;47.568;18.734;2024-03-02T10:09:42;98952.84;;;8.82;100.00
51759;BME280;66684;47.568;18.734;2024-03-02T10:12:09;98950.13;;;8.79;100.00
51759;BME280;66684;47.568;18.734;2024-03-02T10:14:37;98950.22;;;8.80;100.00
51759;BME280;66684;47.568;18.734;2024-03-02T10:17:04;98955.88;;;8.72;100.00
51759;BME280;66684;47.568;18.734;2024-03-02T10:19:31;98955.66;;;8.65;100.00
51759;BME280;66684;47.568;18.734;2024-03-02T10:22:05;98956.69;;;8.48;100.00
51759;BME280;66684;47.568;18.734;2024-03-02T10:24:37;98954.03;;;8.45;100.00
51759;BME280;66684;47.568;18.734;2024-03-02T10:27:15;98954.84;;;8.44;100.00
51759;BME280;66684;47.568;18.734;2024-03-02T10:29:41;98961.41;;;8.36;100.00
51759;BME280;66684;47.568;18.734;2024-03-02T10:32:11;98957.75;;;8.31;100.00
51759;BME280;66684;47.568;18.734;2024-03-02T10:34:39;98958.63;;;8.31;100.00
51759;BME280;66684;47.568;18.734;2024-03-02T10:37:06;98957.25;;;8.19;100.00
51759;BME280;66684;47.568;18.734;2024-03-02T10:39:35;98954.63;;;8.17;100.00
51759;BME280;66684;47.568;18.734;2024-03-02T10:42:05;98953.03;;;8.21;100.00
51759;BME280;66684;47.568;18.734;2024-03-02T10:44:32;98955.59;;;8.21;100.00
51759;BME280;66684;47.568;18.734;2024-03-02T10:47:03;98956.63;;;8.24;100.00
51759;BME280;66684;47.568;18.734;2024-03-02T10:49:30;98952.22;;;8.22;100.00
51759;BME280;66684;47.568;18.734;2024-03-02T10:51:59;98950.47;;;8.21;100.00
51759;BME280;66684;47.568;18.734;2024-03-02T10:54:26;98953.31;;;8.28;100.00
51759;BME280;66684;47.568;18.734;2024-03-02T10:56:53;98953.97;;;8.23;100.00
51759;BME280;66684;47.568;18.734;2024-03-02T11:01:55;98951.22;;;8.39;100.00
51759;BME280;66684;47.568;18.734;2024-03-02T11:04:24;98940.87;;;8.37;100.00
51759;BME280;66684;47.568;18.734;2024-03-02T11:06:51;98940.69;;;8.34;100.00
51759;BME280;66684;47.568;18.734;2024-03-02T11:09:22;98948.69;;;8.41;100.00
51759;BME280;66684;47.568;18.734;2024-03-02T11:11:58;98945.78;;;8.33;100.00
51759;BME280;66684;47.568;18.734;2024-03-02T11:14:30;98947.72;;;8.37;100.00
51759;BME280;66684;47.568;18.734;2024-03-02T11:16:56;98943.03;;;8.49;100.00
51759;BME280;66684;47.568;18.734;2024-03-02T11:19:23;98944.84;;;8.52;100.00
51759;BME280;66684;47.568;18.734;2024-03-02T11:21:50;98942.91;;;8.46;100.00
51759;BME280;66684;47.568;18.734;2024-03-02T11:26:53;98933.28;;;8.42;100.00
51759;BME280;66684;47.568;18.734;2024-03-02T11:32:26;98936.34;;;8.54;100.00
51759;BME280;66684;47.568;18.734;2024-03-02T11:34:51;98929.62;;;8.58;100.00
51759;BME280;66684;47.568;18.734;2024-03-02T11:37:19;98927.88;;;8.57;100.00
51759;BME280;66684;47.568;18.734;2024-03-02T11:39:51;98928.06;;;8.61;100.00
51759;BME280;66684;47.568;18.734;2024-03-02T11:42:17;98924.66;;;8.62;100.00
51759;BME280;66684;47.568;18.734;2024-03-02T11:44:47;98926.25;;;8.60;100.00
51759;BME280;66684;47.568;18.734;2024-03-02T11:47:15;98922.22;;;8.67;100.00
51759;BME280;66684;47.568;18.734;2024-03-02T11:49:59;98924.00;;;8.68;100.00
51759;BME280;66684;47.568;18.734;2024-03-02T11:52:26;98925.69;;;8.68;100.00
51759;BME280;66684;47.568;18.734;2024-03-02T11:54:53;98925.16;;;8.76;100.00
51759;BME280;66684;47.568;18.734;2024-03-02T11:57:21;98929.44;;;8.76;100.00
51759;BME280;66684;47.568;18.734;2024-03-02T11:59:50;98921.25;;;8.63;100.00
51759;BME280;66684;47.568;18.734;2024-03-02T12:02:19;98925.81;;;8.71;100.00
51759;BME280;66684;47.568;18.734;2024-03-02T12:04:46;98924.16;;;8.73;100.00
51759;BME280;66684;47.568;18.734;2024-03-02T12:07:20;98923.44;;;8.77;100.00
51759;BME280;66684;47.568;18.734;2024-03-02T12:10:00;98921.31;;;8.89;100.00
51759;BME280;66684;47.568;18.734;2024-03-02T12:12:29;98915.34;;;8.90;100.00
51759;BME280;66684;47.568;18.734;2024-03-02T12:14:55;98918.97;;;8.95;100.00
51759;BME280;66684;47.568;18.734;2024-03-02T12:17:22;98919.06;;;8.98;100.00
51759;BME280;66684;47.568;18.734;2024-03-02T12:19:48;98920.94;;;9.02;100.00
51759;BME280;66684;47.568;18.734;2024-03-02T12:22:14;98921.75;;;9.01;100.00
51759;BME280;66684;47.568;18.734;2024-03-02T12:24:41;98917.44;;;9.00;100.00
51759;BME280;66684;47.568;18.734;2024-03-02T12:27:11;98912.63;;;9.11;100.00
51759;BME280;66684;47.568;18.734;2024-03-02T12:29:38;98915.91;;;9.05;100.00
51759;BME280;66684;47.568;18.734;2024-03-02T12:32:05;98919.50;;;9.10;100.00
51759;BME280;66684;47.568;18.734;2024-03-02T12:34:31;98916.44;;;9.21;100.00
51759;BME280;66684;47.568;18.734;2024-03-02T12:36:57;98914.47;;;9.13;100.00
51759;BME280;66684;47.568;18.734;2024-03-02T12:39:23;98914.84;;;9.24;100.00
51759;BME280;66684;47.568;18.734;2024-03-02T12:41:50;98914.88;;;9.26;100.00
51759;BME280;66684;47.568;18.734;2024-03-02T12:44:19;98918.19;;;9.22;100.00
51759;BME280;66684;47.568;18.734;2024-03-02T12:46:46;98925.16;;;9.24;100.00
51759;BME280;66684;47.568;18.734;2024-03-02T12:49:14;98920.50;;;9.14;100.00
51759;BME280;66684;47.568;18.734;2024-03-02T12:51:43;98917.75;;;9.09;100.00
51759;BME280;66684;47.568;18.734;2024-03-02T12:54:12;98924.34;;;9.01;100.00
51759;BME280;66684;47.568;18.734;2024-03-02T12:56:41;98917.44;;;9.00;100.00
51759;BME280;66684;47.568;18.734;2024-03-02T12:59:21;98918.47;;;9.05;100.00
51759;BME280;66684;47.568;18.734;2024-03-02T13:01:53;98917.88;;;9.12;100.00